createdAt,value
2023-05-02T00:00:25.444Z,43.65
2023-05-02T00:02:52.172Z,46.30
2023-05-02T00:05:18.828Z,47.10
2023-05-02T00:07:45.269Z,40.60
2023-05-02T00:10:11.792Z,47.63
2023-05-02T00:12:38.839Z,49.90
2023-05-02T00:15:06.088Z,43.10
2023-05-02T00:17:32.616Z,45.70
2023-05-02T00:19:59.439Z,39.43
2023-05-02T00:22:26.422Z,41.67
2023-05-02T00:24:59.265Z,40.92
2023-05-02T00:27:25.650Z,36.72
2023-05-02T00:29:53.161Z,39.38
2023-05-02T00:34:45.879Z,38.17
2023-05-02T00:37:13.111Z,34.28
2023-05-02T00:39:39.483Z,30.92
2023-05-02T00:42:06.341Z,31.92
2023-05-02T00:44:33.248Z,30.60
2023-05-02T00:47:01.790Z,33.65
2023-05-02T00:49:28.556Z,32.90
2023-05-02T00:51:55.525Z,34.88
2023-05-02T00:54:22.087Z,31.15
2023-05-02T00:56:48.555Z,29.23
2023-05-02T00:59:15.562Z,30.48
2023-05-02T01:01:59.546Z,36.80
2023-05-02T01:04:38.162Z,31.20
2023-05-02T01:07:35.883Z,28.83
2023-05-02T01:10:30.720Z,24.08
2023-05-02T01:13:08.762Z,25.73
2023-05-02T01:18:08.911Z,23.25
2023-05-02T01:20:41.250Z,26.30
2023-05-02T01:23:35.441Z,25.55
2023-05-02T01:26:37.466Z,27.85
2023-05-02T01:29:05.988Z,21.20
2023-05-02T01:31:44.383Z,23.48
2023-05-02T01:34:11.816Z,25.48
2023-05-02T01:36:43.198Z,23.70
2023-05-02T01:39:11.970Z,19.77
2023-05-02T01:41:39.390Z,20.67
2023-05-02T01:46:38.210Z,18.00
2023-05-02T01:49:07.899Z,19.95
2023-05-02T01:51:37.079Z,23.52
2023-05-02T01:54:07.163Z,21.73
2023-05-02T01:56:36.651Z,23.35
2023-05-02T01:59:06.407Z,17.75
2023-05-02T02:01:35.446Z,21.13
2023-05-02T02:04:03.890Z,19.45
2023-05-02T02:06:31.316Z,24.08
2023-05-02T02:11:35.667Z,23.58
2023-05-02T02:14:07.272Z,28.95
2023-05-02T02:16:38.094Z,22.80
2023-05-02T02:19:08.329Z,28.42
2023-05-02T02:21:36.397Z,28.52
2023-05-02T02:24:05.692Z,24.40
2023-05-02T02:26:32.763Z,21.58
2023-05-02T02:29:00.970Z,20.00
2023-05-02T02:31:32.303Z,20.05
2023-05-02T02:33:59.476Z,24.15
2023-05-02T02:36:44.768Z,18.00
2023-05-02T02:39:30.818Z,18.58
2023-05-02T02:42:02.404Z,13.52
2023-05-02T02:44:43.928Z,15.90
2023-05-02T02:47:25.178Z,15.70
2023-05-02T02:49:59.148Z,16.23
2023-05-02T02:52:25.856Z,18.02
2023-05-02T02:55:09.491Z,13.23
2023-05-02T02:57:57.919Z,13.15
2023-05-02T03:00:27.583Z,23.40
2023-05-02T03:02:55.434Z,15.63
2023-05-02T03:05:23.100Z,19.30
2023-05-02T03:07:49.565Z,19.02
2023-05-02T03:10:16.424Z,14.90
2023-05-02T03:12:43.669Z,14.80
2023-05-02T03:15:34.091Z,15.07
2023-05-02T03:18:00.543Z,14.48
2023-05-02T03:20:26.944Z,14.95
2023-05-02T03:22:53.450Z,10.45
2023-05-02T03:25:19.860Z,14.80
2023-05-02T03:27:46.583Z,16.85
2023-05-02T03:30:13.068Z,13.60
2023-05-02T03:32:39.473Z,17.80
2023-05-02T03:35:06.327Z,16.58
2023-05-02T03:37:34.779Z,14.32
2023-05-02T03:40:01.394Z,22.17
2023-05-02T03:42:28.094Z,17.63
2023-05-02T03:44:54.677Z,10.45
2023-05-02T03:47:21.140Z,13.07
2023-05-02T03:49:47.610Z,20.42
2023-05-02T03:52:14.090Z,9.00
2023-05-02T03:54:40.500Z,13.27
2023-05-02T03:57:07.961Z,11.48
2023-05-02T04:02:01.612Z,11.25
2023-05-02T04:04:28.256Z,11.63
2023-05-02T04:06:54.804Z,9.13
2023-05-02T04:09:25.311Z,11.13
2023-05-02T04:11:52.998Z,11.93
2023-05-02T04:16:50.039Z,9.20
2023-05-02T04:19:18.354Z,10.23
2023-05-02T04:21:45.592Z,9.50
2023-05-02T04:24:13.552Z,12.38
2023-05-02T04:26:40.099Z,11.25
2023-05-02T04:29:06.490Z,13.87
2023-05-02T04:31:33.142Z,8.68
2023-05-02T04:33:59.602Z,11.75
2023-05-02T04:36:28.420Z,10.23
2023-05-02T04:38:54.964Z,7.75
2023-05-02T04:41:21.596Z,9.95
2023-05-02T04:43:48.026Z,10.32
2023-05-02T04:46:14.485Z,10.15
2023-05-02T04:48:42.255Z,11.30
2023-05-02T04:51:09.723Z,7.90
2023-05-02T04:53:36.294Z,10.73
2023-05-02T04:56:02.724Z,8.40
2023-05-02T04:58:29.494Z,10.18
2023-05-02T05:00:55.965Z,8.18
2023-05-02T05:03:22.516Z,13.40
2023-05-02T05:05:49.041Z,9.97
2023-05-02T05:08:15.478Z,11.52
2023-05-02T05:10:41.987Z,13.57
2023-05-02T05:13:08.490Z,12.93
2023-05-02T05:15:34.930Z,12.60
2023-05-02T05:18:01.779Z,12.48
2023-05-02T05:20:28.228Z,10.75
2023-05-02T05:22:54.644Z,14.50
2023-05-02T05:25:21.083Z,15.40
2023-05-02T05:27:47.487Z,9.80
2023-05-02T05:30:13.944Z,15.50
2023-05-02T05:32:40.453Z,12.65
2023-05-02T05:35:07.396Z,11.27
2023-05-02T05:37:33.886Z,13.60
2023-05-02T05:40:01.333Z,12.73
2023-05-02T05:42:28.488Z,12.40
2023-05-02T05:44:54.911Z,19.27
2023-05-02T05:47:24.440Z,22.00
2023-05-02T05:49:55.257Z,21.83
2023-05-02T05:52:21.998Z,14.63
2023-05-02T05:54:48.639Z,14.48
2023-05-02T05:57:15.021Z,21.07
2023-05-02T05:59:41.419Z,16.38
2023-05-02T06:02:07.845Z,14.70
2023-05-02T06:04:34.337Z,23.25
2023-05-02T06:07:00.790Z,21.05
2023-05-02T06:09:27.624Z,21.33
2023-05-02T06:11:54.598Z,23.15
2023-05-02T06:14:21.077Z,14.82
2023-05-02T06:16:47.492Z,17.50
2023-05-02T06:19:14.927Z,23.15
2023-05-02T06:21:41.369Z,15.45
2023-05-02T06:24:07.740Z,19.63
2023-05-02T06:26:34.136Z,20.65
2023-05-02T06:29:01.217Z,17.35
2023-05-02T06:31:28.045Z,13.88
2023-05-02T06:33:54.537Z,13.68
2023-05-02T06:36:20.887Z,22.48
2023-05-02T06:38:48.017Z,16.55
2023-05-02T06:41:18.448Z,16.13
2023-05-02T06:43:44.958Z,17.33
2023-05-02T06:46:11.378Z,20.77
2023-05-02T06:48:37.970Z,20.15
2023-05-02T06:51:04.548Z,11.30
2023-05-02T06:53:33.038Z,20.40
2023-05-02T06:55:59.844Z,15.27
2023-05-02T06:58:26.426Z,13.00
2023-05-02T07:00:52.842Z,22.90
2023-05-02T07:03:19.231Z,17.55
2023-05-02T07:05:45.673Z,16.42
2023-05-02T07:08:12.081Z,13.20
2023-05-02T07:10:38.503Z,12.63
2023-05-02T07:13:04.912Z,11.25
2023-05-02T07:15:31.355Z,10.57
2023-05-02T07:17:57.853Z,19.92
2023-05-02T07:20:24.424Z,12.43
2023-05-02T07:22:51.097Z,17.58
2023-05-02T07:25:17.605Z,11.75
2023-05-02T07:27:43.977Z,15.70
2023-05-02T07:30:10.812Z,16.40
2023-05-02T07:32:37.232Z,12.10
2023-05-02T07:35:03.774Z,12.40
2023-05-02T07:37:37.436Z,8.20
2023-05-02T07:40:04.583Z,12.70
2023-05-02T07:44:59.282Z,12.05
2023-05-02T07:47:26.599Z,12.20
2023-05-02T07:52:20.704Z,7.15
2023-05-02T07:54:51.220Z,12.20
2023-05-02T07:57:18.480Z,9.80
2023-05-02T07:59:45.209Z,6.85
2023-05-02T08:02:13.789Z,9.43
2023-05-02T08:04:40.949Z,14.55
2023-05-02T08:07:07.405Z,6.40
2023-05-02T08:09:33.841Z,7.25
2023-05-02T08:12:02.562Z,6.32
2023-05-02T08:14:29.382Z,8.45
2023-05-02T08:16:55.754Z,11.93
2023-05-02T08:19:22.178Z,5.38
2023-05-02T08:21:48.779Z,3.35
2023-05-02T08:24:15.250Z,14.20
2023-05-02T08:26:41.679Z,7.72
2023-05-02T08:29:08.197Z,11.02
2023-05-02T08:31:34.629Z,9.57
2023-05-02T08:34:01.123Z,4.90
2023-05-02T08:36:29.076Z,7.85
2023-05-02T08:38:55.520Z,11.85
2023-05-02T08:41:22.144Z,9.25
2023-05-02T08:43:48.587Z,10.88
2023-05-02T08:46:16.597Z,4.67
2023-05-02T08:48:44.893Z,5.57
2023-05-02T08:51:13.569Z,8.13
2023-05-02T08:53:41.032Z,6.38
2023-05-02T08:58:35.810Z,6.97
2023-05-02T09:01:09.272Z,8.05
2023-05-02T09:03:37.051Z,7.68
2023-05-02T09:06:08.070Z,8.02
2023-05-02T09:08:35.893Z,4.85
2023-05-02T09:11:06.634Z,6.63
2023-05-02T09:13:40.749Z,10.80
2023-05-02T09:16:17.109Z,11.90
2023-05-02T09:18:44.342Z,10.07
2023-05-02T09:21:16.270Z,6.13
2023-05-02T09:23:48.945Z,9.55
2023-05-02T09:26:18.417Z,8.77
2023-05-02T09:28:47.122Z,9.15
2023-05-02T09:33:53.317Z,7.15
2023-05-02T09:38:51.124Z,7.00
2023-05-02T09:41:22.080Z,6.70
2023-05-02T09:43:59.102Z,10.25
2023-05-02T09:46:25.765Z,11.98
2023-05-02T09:48:56.516Z,9.75
2023-05-02T09:51:24.559Z,8.23
2023-05-02T09:53:51.786Z,10.15
2023-05-02T09:56:18.612Z,11.25
2023-05-02T09:58:45.360Z,7.22
2023-05-02T10:01:16.627Z,6.53
2023-05-02T10:03:47.055Z,9.95
2023-05-02T10:06:15.043Z,9.52
2023-05-02T10:08:42.112Z,10.43
2023-05-02T10:11:09.151Z,9.55
2023-05-02T10:13:39.371Z,10.27
2023-05-02T10:16:07.380Z,10.60
2023-05-02T10:18:56.271Z,20.52
2023-05-02T10:21:29.779Z,9.07
2023-05-02T10:23:56.516Z,13.32
2023-05-02T10:26:23.468Z,9.90
2023-05-02T10:28:50.994Z,13.65
2023-05-02T10:31:18.508Z,12.57
2023-05-02T10:33:50.783Z,11.75
2023-05-02T10:36:21.914Z,9.00
2023-05-02T10:38:49.687Z,10.82
2023-05-02T10:41:27.685Z,11.27
2023-05-02T10:43:54.417Z,11.55
2023-05-02T10:46:43.406Z,8.68
2023-05-02T10:49:12.025Z,9.95
2023-05-02T10:51:43.497Z,10.88
2023-05-02T10:54:15.927Z,9.15
2023-05-02T10:57:03.849Z,15.05
2023-05-02T10:59:31.911Z,12.00
2023-05-02T11:01:58.500Z,8.73
2023-05-02T11:04:25.054Z,8.10
2023-05-02T11:06:57.387Z,8.73
2023-05-02T11:09:23.694Z,8.30
2023-05-02T11:11:52.542Z,7.35
2023-05-02T11:14:31.038Z,9.88
2023-05-02T11:16:57.522Z,9.43
2023-05-02T11:19:24.859Z,8.40
2023-05-02T11:21:53.797Z,10.38
2023-05-02T11:24:39.805Z,10.77
2023-05-02T11:27:31.181Z,8.35
2023-05-02T11:29:59.005Z,7.78
2023-05-02T11:32:43.115Z,10.98
2023-05-02T11:35:16.867Z,9.15
2023-05-02T11:37:43.347Z,10.52
2023-05-02T11:40:11.742Z,10.20
2023-05-02T11:42:38.275Z,10.73
2023-05-02T11:45:05.271Z,9.85
2023-05-02T11:47:33.082Z,11.45
2023-05-02T11:50:02.776Z,11.02
2023-05-02T11:52:30.726Z,8.77
2023-05-02T11:54:57.413Z,12.20
2023-05-02T11:57:23.933Z,8.73
2023-05-02T11:59:51.665Z,7.93
2023-05-02T12:02:18.121Z,11.35
2023-05-02T12:04:44.966Z,9.13
2023-05-02T12:07:12.379Z,10.45
2023-05-02T12:09:52.931Z,8.43
2023-05-02T12:12:21.153Z,9.20
2023-05-02T12:14:47.912Z,7.88
2023-05-02T12:17:14.979Z,20.20
2023-05-02T12:19:41.608Z,8.52
2023-05-02T12:22:09.412Z,9.38
2023-05-02T12:24:36.317Z,8.00
2023-05-02T12:27:16.115Z,8.13
2023-05-02T12:29:45.145Z,8.20
2023-05-02T12:32:12.122Z,12.20
2023-05-02T12:34:39.563Z,8.20
2023-05-02T12:37:07.902Z,10.13
2023-05-02T12:39:43.780Z,10.80
2023-05-02T12:42:14.549Z,11.15
2023-05-02T12:44:43.356Z,8.15
2023-05-02T12:47:15.072Z,13.75
2023-05-02T12:49:58.734Z,9.95
2023-05-02T12:52:48.275Z,6.32
2023-05-02T12:55:24.248Z,7.43
2023-05-02T12:58:14.796Z,9.45
2023-05-02T13:00:43.708Z,15.05
2023-05-02T13:03:11.985Z,10.23
2023-05-02T13:05:38.535Z,7.35
2023-05-02T13:08:06.045Z,7.57
2023-05-02T13:10:33.089Z,11.45
2023-05-02T13:12:59.462Z,8.38
2023-05-02T13:15:25.933Z,11.00
2023-05-02T13:17:52.550Z,8.60
2023-05-02T13:20:19.526Z,8.77
2023-05-02T13:22:46.065Z,7.18
2023-05-02T13:25:12.553Z,6.55
2023-05-02T13:27:39.801Z,8.25
2023-05-02T13:30:09.070Z,9.93
2023-05-02T13:32:36.218Z,8.38
2023-05-02T13:35:03.668Z,14.75
2023-05-02T13:37:30.119Z,12.80
2023-05-02T13:39:56.573Z,10.75
2023-05-02T13:42:23.053Z,10.02
2023-05-02T13:44:49.474Z,8.90
2023-05-02T13:47:15.827Z,7.90
2023-05-02T13:49:42.206Z,11.75
2023-05-02T13:52:08.749Z,9.00
2023-05-02T13:54:35.184Z,8.20
2023-05-02T13:57:02.556Z,7.85
2023-05-02T13:59:28.993Z,7.93
2023-05-02T14:01:55.435Z,9.10
2023-05-02T14:04:22.990Z,8.88
2023-05-02T14:06:50.210Z,10.27
2023-05-02T14:09:17.273Z,8.45
2023-05-02T14:11:44.465Z,6.68
2023-05-02T14:16:39.384Z,8.40
2023-05-02T14:19:05.990Z,6.28
2023-05-02T14:21:32.504Z,6.18
2023-05-02T14:23:58.948Z,7.95
2023-05-02T14:26:26.504Z,5.10
2023-05-02T14:28:52.919Z,10.80
2023-05-02T14:31:19.410Z,8.18
2023-05-02T14:33:45.888Z,8.52
2023-05-02T14:36:12.633Z,7.53
2023-05-02T14:38:39.025Z,5.97
2023-05-02T14:43:33.025Z,7.63
2023-05-02T14:45:59.504Z,10.68
2023-05-02T14:50:53.763Z,5.70
2023-05-02T14:53:20.857Z,7.32
2023-05-02T14:55:47.432Z,8.43
2023-05-02T14:58:20.242Z,6.35
2023-05-02T15:00:47.371Z,7.93
2023-05-02T15:03:14.157Z,5.80
2023-05-02T15:05:41.705Z,8.93
2023-05-02T15:08:08.108Z,10.05
2023-05-02T15:10:38.476Z,9.80
2023-05-02T15:13:05.985Z,6.50
2023-05-02T15:15:32.480Z,6.57
2023-05-02T15:17:58.941Z,12.18
2023-05-02T15:20:25.365Z,10.90
2023-05-02T15:22:52.870Z,9.23
2023-05-02T15:25:19.308Z,8.48
2023-05-02T15:27:45.912Z,9.68
2023-05-02T15:30:12.716Z,9.80
2023-05-02T15:32:39.148Z,10.98
2023-05-02T15:35:07.800Z,7.03
2023-05-02T15:37:34.902Z,6.95
2023-05-02T15:42:30.786Z,7.88
2023-05-02T15:44:57.556Z,7.20
2023-05-02T15:47:23.951Z,8.85
2023-05-02T15:49:53.880Z,9.50
2023-05-02T15:52:21.166Z,7.82
2023-05-02T15:57:13.965Z,10.05
2023-05-02T15:59:40.382Z,6.40
2023-05-02T16:02:06.937Z,8.50
2023-05-02T16:04:34.869Z,6.18
2023-05-02T16:07:02.129Z,5.05
2023-05-02T16:11:57.951Z,6.38
2023-05-02T16:14:26.240Z,5.50
2023-05-02T16:16:52.847Z,6.55
2023-05-02T16:19:19.438Z,6.38
2023-05-02T16:21:46.338Z,7.55
2023-05-02T16:24:13.437Z,10.38
2023-05-02T16:26:40.014Z,6.57
2023-05-02T16:29:06.566Z,3.95
2023-05-02T16:31:33.119Z,5.45
2023-05-02T16:33:59.648Z,8.40
2023-05-02T16:36:26.546Z,4.63
2023-05-02T16:38:53.001Z,12.82
2023-05-02T16:41:19.485Z,8.13
2023-05-02T16:43:46.842Z,6.13
2023-05-02T16:46:13.402Z,8.80
2023-05-02T16:48:39.871Z,6.18
2023-05-02T16:51:06.282Z,7.85
2023-05-02T16:53:32.722Z,6.30
2023-05-02T16:55:59.765Z,6.50
2023-05-02T17:00:56.125Z,7.60
2023-05-02T17:03:22.788Z,4.45
2023-05-02T17:05:49.540Z,14.82
2023-05-02T17:08:16.899Z,6.15
2023-05-02T17:10:48.519Z,7.63
2023-05-02T17:13:14.977Z,6.32
2023-05-02T17:15:41.993Z,6.97
2023-05-02T17:18:08.514Z,5.07
2023-05-02T17:20:35.947Z,7.72
2023-05-02T17:23:02.911Z,2.80
2023-05-02T17:25:30.443Z,6.38
2023-05-02T17:27:56.909Z,9.13
2023-05-02T17:30:24.647Z,4.43
2023-05-02T17:32:51.284Z,5.28
2023-05-02T17:35:17.875Z,5.07
2023-05-02T17:37:44.285Z,5.60
2023-05-02T17:40:11.237Z,4.50
2023-05-02T17:42:37.822Z,5.68
2023-05-02T17:45:05.068Z,8.68
2023-05-02T17:49:57.809Z,7.85
2023-05-02T17:52:24.165Z,7.10
2023-05-02T17:54:50.650Z,4.70
2023-05-02T17:57:17.056Z,5.30
2023-05-02T17:59:43.532Z,7.15
2023-05-02T18:02:10.297Z,6.27
2023-05-02T18:04:37.334Z,7.05
2023-05-02T18:07:05.914Z,7.40
2023-05-02T18:09:32.773Z,6.20
2023-05-02T18:12:00.483Z,5.37
2023-05-02T18:14:26.949Z,4.15
2023-05-02T18:16:53.381Z,6.87
2023-05-02T18:19:19.906Z,10.17
2023-05-02T18:21:46.429Z,9.50
2023-05-02T18:24:13.086Z,7.67
2023-05-02T18:26:39.525Z,9.40
2023-05-02T18:29:05.991Z,8.43
2023-05-02T18:31:32.605Z,6.07
2023-05-02T18:33:59.045Z,8.43
2023-05-02T18:36:29.161Z,12.80
2023-05-02T18:38:56.301Z,5.20
2023-05-02T18:41:22.859Z,7.30
2023-05-02T18:43:49.534Z,4.53
2023-05-02T18:46:16.043Z,6.57
2023-05-02T18:48:42.659Z,5.38
2023-05-02T18:51:09.479Z,5.07
2023-05-02T18:53:36.518Z,6.80
2023-05-02T18:56:03.102Z,8.43
2023-05-02T18:58:29.738Z,8.63
2023-05-02T19:00:56.324Z,7.45
2023-05-02T19:03:23.946Z,6.07
2023-05-02T19:05:51.386Z,7.97
2023-05-02T19:10:44.172Z,7.22
2023-05-02T19:13:10.621Z,8.52
2023-05-02T19:15:37.172Z,5.28
2023-05-02T19:18:03.818Z,7.23
2023-05-02T19:20:30.342Z,5.63
2023-05-02T19:23:14.673Z,7.18
2023-05-02T19:25:44.413Z,9.50
2023-05-02T19:28:12.214Z,7.07
2023-05-02T19:30:42.606Z,8.45
2023-05-02T19:33:09.276Z,7.82
2023-05-02T19:35:36.459Z,17.58
2023-05-02T19:38:03.176Z,6.57
2023-05-02T19:40:29.649Z,6.80
2023-05-02T19:42:56.120Z,10.80
2023-05-02T19:45:22.534Z,9.18
2023-05-02T19:47:48.946Z,8.18
2023-05-02T19:50:15.772Z,6.50
2023-05-02T19:52:42.830Z,7.00
2023-05-02T19:55:09.396Z,6.18
2023-05-02T19:57:36.282Z,7.07
2023-05-02T20:00:03.197Z,6.57
2023-05-02T20:02:30.951Z,5.78
2023-05-02T20:07:23.793Z,11.90
2023-05-02T20:09:50.437Z,4.55
2023-05-02T20:12:16.917Z,6.90
2023-05-02T20:14:43.438Z,6.78
2023-05-02T20:17:09.863Z,6.57
2023-05-02T20:19:36.338Z,13.45
2023-05-02T20:22:02.745Z,9.13
2023-05-02T20:24:29.166Z,14.13
2023-05-02T20:26:55.589Z,5.78
2023-05-02T20:29:21.959Z,11.75
2023-05-02T20:31:48.396Z,12.05
2023-05-02T20:34:14.865Z,7.03
2023-05-02T20:36:41.310Z,4.55
2023-05-02T20:39:10.184Z,8.10
2023-05-02T20:41:37.681Z,6.47
2023-05-02T20:44:04.270Z,5.88
2023-05-02T20:46:31.127Z,4.87
2023-05-02T20:48:59.371Z,12.63
2023-05-02T20:51:29.595Z,4.72
2023-05-02T20:53:56.261Z,4.05
2023-05-02T20:56:23.070Z,6.17
2023-05-02T20:58:49.522Z,7.47
2023-05-02T21:01:15.932Z,5.20
2023-05-02T21:03:42.433Z,4.65
2023-05-02T21:06:08.937Z,5.22
2023-05-02T21:08:35.560Z,4.47
2023-05-02T21:11:02.024Z,11.57
2023-05-02T21:13:28.468Z,9.45
2023-05-02T21:15:54.899Z,7.43
2023-05-02T21:18:21.384Z,4.55
2023-05-02T21:20:50.633Z,6.93
2023-05-02T21:23:17.034Z,8.75
2023-05-02T21:25:43.453Z,6.38
2023-05-02T21:28:11.418Z,8.27
2023-05-02T21:30:37.785Z,9.20
2023-05-02T21:33:04.238Z,5.32
2023-05-02T21:35:33.998Z,6.10
2023-05-02T21:38:00.535Z,8.77
2023-05-02T21:40:28.681Z,7.72
2023-05-02T21:42:55.162Z,5.38
2023-05-02T21:45:21.596Z,7.63
2023-05-02T21:47:48.032Z,8.77
2023-05-02T21:50:14.503Z,5.57
2023-05-02T21:52:40.910Z,7.97
2023-05-02T21:55:07.866Z,9.35
2023-05-02T21:57:34.230Z,13.63
2023-05-02T22:00:01.009Z,9.43
2023-05-02T22:02:27.866Z,9.43
2023-05-02T22:04:54.799Z,12.67
2023-05-02T22:07:21.211Z,8.40
2023-05-02T22:09:47.616Z,9.50
2023-05-02T22:12:14.008Z,9.57
2023-05-02T22:14:44.997Z,7.57
2023-05-02T22:17:13.321Z,10.68
2023-05-02T22:19:40.478Z,9.85
2023-05-02T22:22:07.247Z,9.27
2023-05-02T22:24:33.757Z,17.55
2023-05-02T22:27:00.219Z,8.57
2023-05-02T22:29:26.825Z,9.32
2023-05-02T22:31:53.297Z,7.13
2023-05-02T22:34:19.775Z,7.68
2023-05-02T22:36:46.225Z,9.57
2023-05-02T22:39:14.418Z,9.93
2023-05-02T22:41:43.548Z,8.20
2023-05-02T22:44:11.017Z,7.53
2023-05-02T22:49:06.036Z,11.65
2023-05-02T22:51:33.271Z,7.10
2023-05-02T22:53:59.852Z,8.77
2023-05-02T22:56:27.209Z,7.82
2023-05-02T22:58:53.614Z,8.15
2023-05-02T23:01:20.133Z,7.43
2023-05-02T23:03:46.707Z,8.90
2023-05-02T23:06:13.340Z,5.47
2023-05-02T23:08:40.074Z,7.15
2023-05-02T23:11:06.453Z,10.17
2023-05-02T23:13:32.839Z,10.20
2023-05-02T23:15:59.457Z,13.35
2023-05-02T23:18:25.940Z,9.23
2023-05-02T23:20:52.445Z,7.03
2023-05-02T23:23:18.823Z,7.82
2023-05-02T23:25:45.204Z,8.73
2023-05-02T23:28:12.109Z,6.05
2023-05-02T23:30:40.066Z,5.32
2023-05-02T23:33:06.791Z,6.53
2023-05-02T23:35:33.638Z,7.93
2023-05-02T23:38:00.870Z,10.43
2023-05-02T23:40:28.166Z,7.25
2023-05-02T23:42:54.595Z,5.65
2023-05-02T23:45:21.212Z,7.70
2023-05-02T23:47:47.704Z,7.10
2023-05-02T23:50:14.249Z,8.48
2023-05-02T23:52:40.678Z,5.72
2023-05-02T23:55:10.800Z,4.85
2023-05-02T23:57:37.448Z,7.63
